sensor_id;sensor_type;location;lat;lon;timestamp;P1;durP1;ratioP1;P2;durP2;ratioP2
43990;SDS011;29654;50.784;20.604;2024-01-07T00:04:27;3.25;;;2.35;;
43990;SDS011;29654;50.784;20.604;2024-01-07T00:09:31;4.97;;;2.65;;
43990;SDS011;29654;50.784;20.604;2024-01-07T00:14:34;2.05;;;1.83;;
43990;SDS011;29654;50.784;20.604;2024-01-07T00:19:37;2.70;;;2.30;;
43990;SDS011;29654;50.784;20.604;2024-01-07T00:24:42;2.38;;;2.17;;
43990;SDS011;29654;50.784;20.604;2024-01-07T00:29:45;2.33;;;1.95;;
43990;SDS011;29654;50.784;20.604;2024-01-07T00:34:47;3.47;;;2.55;;
43990;SDS011;29654;50.784;20.604;2024-01-07T00:39:51;2.90;;;2.28;;
43990;SDS011;29654;50.784;20.604;2024-01-07T00:44:54;2.92;;;2.28;;
43990;SDS011;29654;50.784;20.604;2024-01-07T00:49:57;2.40;;;1.83;;
43990;SDS011;29654;50.784;20.604;2024-01-07T00:55:01;1.88;;;1.70;;
43990;SDS011;29654;50.784;20.604;2024-01-07T01:00:05;3.00;;;2.28;;
43990;SDS011;29654;50.784;20.604;2024-01-07T01:05:09;2.33;;;1.67;;
43990;SDS011;29654;50.784;20.604;2024-01-07T01:10:13;2.55;;;1.80;;
43990;SDS011;29654;50.784;20.604;2024-01-07T01:15:17;2.67;;;1.90;;
43990;SDS011;29654;50.784;20.604;2024-01-07T01:20:20;1.98;;;1.80;;
43990;SDS011;29654;50.784;20.604;2024-01-07T01:25:24;1.77;;;1.40;;
43990;SDS011;29654;50.784;20.604;2024-01-07T01:30:27;1.40;;;1.30;;
43990;SDS011;29654;50.784;20.604;2024-01-07T01:35:33;2.83;;;1.50;;
43990;SDS011;29654;50.784;20.604;2024-01-07T01:40:38;1.40;;;1.15;;
43990;SDS011;29654;50.784;20.604;2024-01-07T01:45:40;1.20;;;1.08;;
43990;SDS011;29654;50.784;20.604;2024-01-07T01:50:43;2.33;;;1.38;;
43990;SDS011;29654;50.784;20.604;2024-01-07T01:55:47;1.98;;;1.38;;
43990;SDS011;29654;50.784;20.604;2024-01-07T02:00:50;2.28;;;1.08;;
43990;SDS011;29654;50.784;20.604;2024-01-07T02:05:53;1.35;;;1.25;;
43990;SDS011;29654;50.784;20.604;2024-01-07T02:10:58;1.70;;;1.38;;
43990;SDS011;29654;50.784;20.604;2024-01-07T02:16:16;1.73;;;1.38;;
43990;SDS011;29654;50.784;20.604;2024-01-07T02:21:18;2.08;;;1.13;;
43990;SDS011;29654;50.784;20.604;2024-01-07T02:26:23;1.03;;;0.97;;
43990;SDS011;29654;50.784;20.604;2024-01-07T02:31:26;1.38;;;0.90;;
43990;SDS011;29654;50.784;20.604;2024-01-07T02:36:29;1.47;;;1.00;;
43990;SDS011;29654;50.784;20.604;2024-01-07T02:41:33;0.82;;;0.73;;
43990;SDS011;29654;50.784;20.604;2024-01-07T02:46:37;1.60;;;0.80;;
43990;SDS011;29654;50.784;20.604;2024-01-07T02:51:40;0.90;;;0.68;;
43990;SDS011;29654;50.784;20.604;2024-01-07T02:56:44;1.95;;;0.85;;
43990;SDS011;29654;50.784;20.604;2024-01-07T03:01:47;1.00;;;0.90;;
43990;SDS011;29654;50.784;20.604;2024-01-07T03:06:50;1.17;;;0.90;;
43990;SDS011;29654;50.784;20.604;2024-01-07T03:11:54;1.15;;;0.95;;
43990;SDS011;29654;50.784;20.604;2024-01-07T03:16:56;1.42;;;1.10;;
43990;SDS011;29654;50.784;20.604;2024-01-07T03:21:59;1.25;;;1.15;;
43990;SDS011;29654;50.784;20.604;2024-01-07T03:27:04;0.77;;;0.70;;
43990;SDS011;29654;50.784;20.604;2024-01-07T03:32:06;1.33;;;0.90;;
43990;SDS011;29654;50.784;20.604;2024-01-07T03:37:09;0.68;;;0.68;;
43990;SDS011;29654;50.784;20.604;2024-01-07T03:42:13;1.23;;;1.00;;
43990;SDS011;29654;50.784;20.604;2024-01-07T03:47:16;1.27;;;0.80;;
43990;SDS011;29654;50.784;20.604;2024-01-07T03:52:19;1.75;;;1.10;;
43990;SDS011;29654;50.784;20.604;2024-01-07T03:57:23;0.82;;;0.82;;
43990;SDS011;29654;50.784;20.604;2024-01-07T04:02:25;1.40;;;0.73;;
43990;SDS011;29654;50.784;20.604;2024-01-07T04:07:28;1.42;;;0.90;;
43990;SDS011;29654;50.784;20.604;2024-01-07T04:12:36;0.90;;;0.80;;
43990;SDS011;29654;50.784;20.604;2024-01-07T04:17:47;1.37;;;0.80;;
43990;SDS011;29654;50.784;20.604;2024-01-07T04:22:50;0.63;;;0.63;;
43990;SDS011;29654;50.784;20.604;2024-01-07T04:27:54;1.15;;;0.73;;
43990;SDS011;29654;50.784;20.604;2024-01-07T04:32:56;0.90;;;0.70;;
43990;SDS011;29654;50.784;20.604;2024-01-07T04:37:59;0.90;;;0.80;;
43990;SDS011;29654;50.784;20.604;2024-01-07T04:43:03;1.02;;;0.93;;
43990;SDS011;29654;50.784;20.604;2024-01-07T04:48:06;1.10;;;1.00;;
43990;SDS011;29654;50.784;20.604;2024-01-07T04:53:09;1.20;;;1.03;;
43990;SDS011;29654;50.784;20.604;2024-01-07T04:58:13;1.10;;;0.80;;
43990;SDS011;29654;50.784;20.604;2024-01-07T05:03:16;1.20;;;0.97;;
43990;SDS011;29654;50.784;20.604;2024-01-07T05:08:18;1.83;;;0.90;;
43990;SDS011;29654;50.784;20.604;2024-01-07T05:13:23;1.65;;;1.00;;
43990;SDS011;29654;50.784;20.604;2024-01-07T05:18:25;1.13;;;1.03;;
43990;SDS011;29654;50.784;20.604;2024-01-07T05:23:28;1.15;;;1.05;;
43990;SDS011;29654;50.784;20.604;2024-01-07T05:28:32;1.20;;;0.90;;
43990;SDS011;29654;50.784;20.604;2024-01-07T05:33:35;1.10;;;1.00;;
43990;SDS011;29654;50.784;20.604;2024-01-07T05:38:37;2.27;;;1.20;;
43990;SDS011;29654;50.784;20.604;2024-01-07T05:43:41;0.83;;;0.80;;
43990;SDS011;29654;50.784;20.604;2024-01-07T05:48:45;1.33;;;0.90;;
43990;SDS011;29654;50.784;20.604;2024-01-07T05:53:49;1.85;;;1.27;;
43990;SDS011;29654;50.784;20.604;2024-01-07T05:58:54;1.37;;;0.90;;
43990;SDS011;29654;50.784;20.604;2024-01-07T06:03:56;0.93;;;0.80;;
43990;SDS011;29654;50.784;20.604;2024-01-07T06:08:59;1.43;;;1.00;;
43990;SDS011;29654;50.784;20.604;2024-01-07T06:14:03;0.93;;;0.82;;
43990;SDS011;29654;50.784;20.604;2024-01-07T06:19:06;2.13;;;1.20;;
43990;SDS011;29654;50.784;20.604;2024-01-07T06:24:09;1.93;;;1.43;;
43990;SDS011;29654;50.784;20.604;2024-01-07T06:29:13;1.17;;;0.90;;
43990;SDS011;29654;50.784;20.604;2024-01-07T06:34:16;2.03;;;1.10;;
43990;SDS011;29654;50.784;20.604;2024-01-07T06:39:18;1.00;;;0.90;;
43990;SDS011;29654;50.784;20.604;2024-01-07T06:44:23;1.65;;;1.00;;
43990;SDS011;29654;50.784;20.604;2024-01-07T06:49:25;1.23;;;1.13;;
43990;SDS011;29654;50.784;20.604;2024-01-07T06:54:28;1.38;;;1.02;;
43990;SDS011;29654;50.784;20.604;2024-01-07T06:59:32;1.40;;;0.80;;
43990;SDS011;29654;50.784;20.604;2024-01-07T07:04:35;1.40;;;1.17;;
43990;SDS011;29654;50.784;20.604;2024-01-07T07:09:37;1.60;;;1.10;;
43990;SDS011;29654;50.784;20.604;2024-01-07T07:14:41;1.75;;;1.25;;
43990;SDS011;29654;50.784;20.604;2024-01-07T07:19:44;1.90;;;1.33;;
43990;SDS011;29654;50.784;20.604;2024-01-07T07:24:47;1.67;;;1.17;;
43990;SDS011;29654;50.784;20.604;2024-01-07T07:29:51;1.77;;;1.23;;
43990;SDS011;29654;50.784;20.604;2024-01-07T07:34:53;1.50;;;1.27;;
43990;SDS011;29654;50.784;20.604;2024-01-07T07:39:56;1.20;;;1.10;;
43990;SDS011;29654;50.784;20.604;2024-01-07T07:45:00;2.30;;;1.25;;
43990;SDS011;29654;50.784;20.604;2024-01-07T07:50:05;2.77;;;1.47;;
43990;SDS011;29654;50.784;20.604;2024-01-07T07:55:10;2.30;;;1.53;;
43990;SDS011;29654;50.784;20.604;2024-01-07T08:00:15;2.80;;;1.33;;
43990;SDS011;29654;50.784;20.604;2024-01-07T08:05:18;1.90;;;1.40;;
43990;SDS011;29654;50.784;20.604;2024-01-07T08:10:21;1.47;;;1.30;;
43990;SDS011;29654;50.784;20.604;2024-01-07T08:15:25;1.90;;;1.20;;
43990;SDS011;29654;50.784;20.604;2024-01-07T08:20:28;1.87;;;1.50;;
43990;SDS011;29654;50.784;20.604;2024-01-07T08:25:31;1.73;;;1.37;;
43990;SDS011;29654;50.784;20.604;2024-01-07T08:30:35;1.35;;;1.25;;
43990;SDS011;29654;50.784;20.604;2024-01-07T08:35:37;3.58;;;1.90;;
43990;SDS011;29654;50.784;20.604;2024-01-07T08:40:40;1.92;;;1.15;;
43990;SDS011;29654;50.784;20.604;2024-01-07T08:45:44;1.88;;;1.25;;
43990;SDS011;29654;50.784;20.604;2024-01-07T08:50:47;2.63;;;1.70;;
43990;SDS011;29654;50.784;20.604;2024-01-07T08:55:50;2.13;;;1.70;;
43990;SDS011;29654;50.784;20.604;2024-01-07T09:00:55;2.08;;;1.52;;
43990;SDS011;29654;50.784;20.604;2024-01-07T09:05:58;1.90;;;1.73;;
43990;SDS011;29654;50.784;20.604;2024-01-07T09:11:03;1.83;;;1.60;;
43990;SDS011;29654;50.784;20.604;2024-01-07T09:16:08;2.63;;;1.73;;
43990;SDS011;29654;50.784;20.604;2024-01-07T09:21:11;2.10;;;1.88;;
43990;SDS011;29654;50.784;20.604;2024-01-07T09:26:18;3.35;;;2.22;;
43990;SDS011;29654;50.784;20.604;2024-01-07T09:31:23;2.72;;;1.90;;
43990;SDS011;29654;50.784;20.604;2024-01-07T09:36:26;4.65;;;2.88;;
43990;SDS011;29654;50.784;20.604;2024-01-07T09:41:29;2.73;;;1.83;;
43990;SDS011;29654;50.784;20.604;2024-01-07T09:46:34;2.90;;;2.50;;
43990;SDS011;29654;50.784;20.604;2024-01-07T09:51:41;5.30;;;2.58;;
43990;SDS011;29654;50.784;20.604;2024-01-07T09:56:49;2.65;;;1.95;;
43990;SDS011;29654;50.784;20.604;2024-01-07T10:01:58;3.05;;;2.65;;
43990;SDS011;29654;50.784;20.604;2024-01-07T10:07:02;3.50;;;2.10;;
43990;SDS011;29654;50.784;20.604;2024-01-07T10:12:05;2.80;;;1.80;;
43990;SDS011;29654;50.784;20.604;2024-01-07T10:17:17;3.42;;;2.67;;
43990;SDS011;29654;50.784;20.604;2024-01-07T10:22:20;2.75;;;2.42;;
43990;SDS011;29654;50.784;20.604;2024-01-07T10:27:22;3.80;;;2.95;;
43990;SDS011;29654;50.784;20.604;2024-01-07T10:32:27;4.22;;;3.33;;
43990;SDS011;29654;50.784;20.604;2024-01-07T10:37:29;5.43;;;3.50;;
43990;SDS011;29654;50.784;20.604;2024-01-07T10:42:33;3.85;;;2.80;;
43990;SDS011;29654;50.784;20.604;2024-01-07T10:47:37;4.78;;;2.70;;
43990;SDS011;29654;50.784;20.604;2024-01-07T10:52:42;5.50;;;3.97;;
43990;SDS011;29654;50.784;20.604;2024-01-07T10:57:50;3.25;;;2.85;;
43990;SDS011;29654;50.784;20.604;2024-01-07T11:03:01;5.35;;;3.55;;
43990;SDS011;29654;50.784;20.604;2024-01-07T11:08:15;3.63;;;2.45;;
43990;SDS011;29654;50.784;20.604;2024-01-07T11:13:33;4.80;;;2.97;;
43990;SDS011;29654;50.784;20.604;2024-01-07T11:18:39;4.82;;;2.90;;
43990;SDS011;29654;50.784;20.604;2024-01-07T11:23:52;4.18;;;3.10;;
43990;SDS011;29654;50.784;20.604;2024-01-07T11:28:55;3.00;;;2.70;;
43990;SDS011;29654;50.784;20.604;2024-01-07T11:34:00;5.03;;;3.85;;
43990;SDS011;29654;50.784;20.604;2024-01-07T11:39:03;4.03;;;2.80;;
43990;SDS011;29654;50.784;20.604;2024-01-07T11:44:09;6.15;;;3.38;;
43990;SDS011;29654;50.784;20.604;2024-01-07T11:49:17;3.33;;;2.87;;
43990;SDS011;29654;50.784;20.604;2024-01-07T11:54:20;4.53;;;3.13;;
43990;SDS011;29654;50.784;20.604;2024-01-07T11:59:23;6.10;;;4.07;;
43990;SDS011;29654;50.784;20.604;2024-01-07T12:04:28;6.47;;;4.53;;
43990;SDS011;29654;50.784;20.604;2024-01-07T12:09:31;9.63;;;5.97;;
43990;SDS011;29654;50.784;20.604;2024-01-07T12:14:33;7.80;;;4.97;;
43990;SDS011;29654;50.784;20.604;2024-01-07T12:19:39;7.03;;;4.20;;
43990;SDS011;29654;50.784;20.604;2024-01-07T12:24:42;6.70;;;5.10;;
43990;SDS011;29654;50.784;20.604;2024-01-07T12:29:45;5.17;;;3.77;;
43990;SDS011;29654;50.784;20.604;2024-01-07T12:34:59;7.37;;;5.50;;
43990;SDS011;29654;50.784;20.604;2024-01-07T12:40:03;8.10;;;4.70;;
43990;SDS011;29654;50.784;20.604;2024-01-07T12:45:09;6.30;;;4.07;;
43990;SDS011;29654;50.784;20.604;2024-01-07T12:50:16;7.87;;;4.77;;
43990;SDS011;29654;50.784;20.604;2024-01-07T12:55:22;6.03;;;4.10;;
43990;SDS011;29654;50.784;20.604;2024-01-07T13:00:25;8.23;;;4.87;;
43990;SDS011;29654;50.784;20.604;2024-01-07T13:05:30;6.00;;;4.03;;
43990;SDS011;29654;50.784;20.604;2024-01-07T13:10:33;5.97;;;4.65;;
43990;SDS011;29654;50.784;20.604;2024-01-07T13:15:36;7.83;;;4.97;;
43990;SDS011;29654;50.784;20.604;2024-01-07T13:20:40;7.00;;;4.10;;
43990;SDS011;29654;50.784;20.604;2024-01-07T13:25:44;6.30;;;3.87;;
43990;SDS011;29654;50.784;20.604;2024-01-07T13:30:48;6.57;;;4.50;;
43990;SDS011;29654;50.784;20.604;2024-01-07T13:35:52;7.43;;;5.20;;
43990;SDS011;29654;50.784;20.604;2024-01-07T13:40:54;6.33;;;4.53;;
43990;SDS011;29654;50.784;20.604;2024-01-07T13:45:57;7.00;;;4.50;;
43990;SDS011;29654;50.784;20.604;2024-01-07T13:51:01;8.87;;;6.10;;
43990;SDS011;29654;50.784;20.604;2024-01-07T13:56:04;8.73;;;5.20;;
43990;SDS011;29654;50.784;20.604;2024-01-07T14:01:08;9.87;;;5.53;;
43990;SDS011;29654;50.784;20.604;2024-01-07T14:06:12;9.70;;;6.20;;
43990;SDS011;29654;50.784;20.604;2024-01-07T14:11:15;7.40;;;5.67;;
43990;SDS011;29654;50.784;20.604;2024-01-07T14:16:18;8.93;;;5.30;;
43990;SDS011;29654;50.784;20.604;2024-01-07T14:21:22;7.07;;;5.10;;
43990;SDS011;29654;50.784;20.604;2024-01-07T14:26:26;7.10;;;5.07;;
43990;SDS011;29654;50.784;20.604;2024-01-07T14:31:28;9.50;;;6.13;;
43990;SDS011;29654;50.784;20.604;2024-01-07T14:36:32;6.97;;;4.50;;
43990;SDS011;29654;50.784;20.604;2024-01-07T14:41:35;6.97;;;4.50;;
43990;SDS011;29654;50.784;20.604;2024-01-07T14:46:38;8.70;;;4.37;;
43990;SDS011;29654;50.784;20.604;2024-01-07T14:51:42;6.67;;;4.30;;
43990;SDS011;29654;50.784;20.604;2024-01-07T14:56:45;7.33;;;4.73;;
43990;SDS011;29654;50.784;20.604;2024-01-07T15:01:48;8.63;;;5.30;;
43990;SDS011;29654;50.784;20.604;2024-01-07T15:06:53;9.87;;;5.70;;
43990;SDS011;29654;50.784;20.604;2024-01-07T15:11:56;7.57;;;4.97;;
43990;SDS011;29654;50.784;20.604;2024-01-07T15:16:59;9.73;;;5.60;;
43990;SDS011;29654;50.784;20.604;2024-01-07T15:22:03;11.83;;;6.80;;
43990;SDS011;29654;50.784;20.604;2024-01-07T15:27:06;6.70;;;4.47;;
43990;SDS011;29654;50.784;20.604;2024-01-07T15:32:09;9.33;;;5.93;;
43990;SDS011;29654;50.784;20.604;2024-01-07T15:37:13;12.70;;;6.77;;
43990;SDS011;29654;50.784;20.604;2024-01-07T15:42:16;10.07;;;7.03;;
43990;SDS011;29654;50.784;20.604;2024-01-07T15:47:19;11.53;;;6.17;;
43990;SDS011;29654;50.784;20.604;2024-01-07T15:52:25;10.63;;;6.73;;
43990;SDS011;29654;50.784;20.604;2024-01-07T15:57:29;8.47;;;5.77;;
43990;SDS011;29654;50.784;20.604;2024-01-07T16:02:31;10.10;;;6.87;;
43990;SDS011;29654;50.784;20.604;2024-01-07T16:07:36;10.80;;;6.60;;
43990;SDS011;29654;50.784;20.604;2024-01-07T16:12:38;11.80;;;6.77;;
43990;SDS011;29654;50.784;20.604;2024-01-07T16:17:43;11.03;;;7.27;;
43990;SDS011;29654;50.784;20.604;2024-01-07T16:22:47;11.50;;;7.77;;
43990;SDS011;29654;50.784;20.604;2024-01-07T16:27:50;10.77;;;7.00;;
43990;SDS011;29654;50.784;20.604;2024-01-07T16:32:53;11.30;;;6.40;;
43990;SDS011;29654;50.784;20.604;2024-01-07T16:37:57;9.67;;;6.67;;
43990;SDS011;29654;50.784;20.604;2024-01-07T16:42:59;11.40;;;7.77;;
43990;SDS011;29654;50.784;20.604;2024-01-07T16:48:03;10.73;;;6.70;;
43990;SDS011;29654;50.784;20.604;2024-01-07T16:53:07;14.17;;;8.10;;
43990;SDS011;29654;50.784;20.604;2024-01-07T16:58:10;10.13;;;6.10;;
43990;SDS011;29654;50.784;20.604;2024-01-07T17:03:13;9.83;;;6.27;;
43990;SDS011;29654;50.784;20.604;2024-01-07T17:08:17;11.47;;;6.73;;
43990;SDS011;29654;50.784;20.604;2024-01-07T17:13:20;11.17;;;6.97;;
43990;SDS011;29654;50.784;20.604;2024-01-07T17:18:23;11.77;;;7.20;;
43990;SDS011;29654;50.784;20.604;2024-01-07T17:23:27;9.93;;;5.93;;
43990;SDS011;29654;50.784;20.604;2024-01-07T17:28:30;9.17;;;6.00;;
43990;SDS011;29654;50.784;20.604;2024-01-07T17:33:34;10.40;;;6.73;;
43990;SDS011;29654;50.784;20.604;2024-01-07T17:38:38;10.57;;;6.20;;
43990;SDS011;29654;50.784;20.604;2024-01-07T17:43:41;8.77;;;6.27;;
43990;SDS011;29654;50.784;20.604;2024-01-07T17:48:44;8.90;;;6.03;;
43990;SDS011;29654;50.784;20.604;2024-01-07T17:53:50;10.27;;;6.67;;
43990;SDS011;29654;50.784;20.604;2024-01-07T17:58:54;12.27;;;7.03;;
43990;SDS011;29654;50.784;20.604;2024-01-07T18:03:57;10.97;;;7.03;;
43990;SDS011;29654;50.784;20.604;2024-01-07T18:09:04;9.43;;;5.93;;
43990;SDS011;29654;50.784;20.604;2024-01-07T18:14:07;9.40;;;6.17;;
43990;SDS011;29654;50.784;20.604;2024-01-07T18:19:13;8.57;;;6.00;;
43990;SDS011;29654;50.784;20.604;2024-01-07T18:24:17;10.33;;;6.13;;
43990;SDS011;29654;50.784;20.604;2024-01-07T18:29:20;9.07;;;6.27;;
43990;SDS011;29654;50.784;20.604;2024-01-07T18:34:24;9.87;;;5.53;;
43990;SDS011;29654;50.784;20.604;2024-01-07T18:39:28;6.50;;;5.10;;
43990;SDS011;29654;50.784;20.604;2024-01-07T18:44:31;12.37;;;5.87;;
43990;SDS011;29654;50.784;20.604;2024-01-07T18:49:37;10.30;;;7.23;;
43990;SDS011;29654;50.784;20.604;2024-01-07T18:54:42;8.93;;;6.40;;
43990;SDS011;29654;50.784;20.604;2024-01-07T18:59:46;9.73;;;5.70;;
43990;SDS011;29654;50.784;20.604;2024-01-07T19:04:51;8.80;;;6.43;;
43990;SDS011;29654;50.784;20.604;2024-01-07T19:09:58;7.20;;;5.23;;
43990;SDS011;29654;50.784;20.604;2024-01-07T19:15:01;7.43;;;5.67;;
43990;SDS011;29654;50.784;20.604;2024-01-07T19:20:06;8.90;;;5.67;;
43990;SDS011;29654;50.784;20.604;2024-01-07T19:25:12;10.60;;;5.93;;
43990;SDS011;29654;50.784;20.604;2024-01-07T19:30:17;8.77;;;5.23;;
43990;SDS011;29654;50.784;20.604;2024-01-07T19:35:21;10.13;;;6.37;;
43990;SDS011;29654;50.784;20.604;2024-01-07T19:40:26;11.03;;;6.17;;
43990;SDS011;29654;50.784;20.604;2024-01-07T19:45:29;8.77;;;5.83;;
43990;SDS011;29654;50.784;20.604;2024-01-07T19:50:32;10.93;;;5.87;;
43990;SDS011;29654;50.784;20.604;2024-01-07T19:55:36;12.60;;;6.03;;
43990;SDS011;29654;50.784;20.604;2024-01-07T20:00:39;9.77;;;5.80;;
43990;SDS011;29654;50.784;20.604;2024-01-07T20:05:43;11.30;;;5.53;;
43990;SDS011;29654;50.784;20.604;2024-01-07T20:10:47;9.63;;;6.00;;
43990;SDS011;29654;50.784;20.604;2024-01-07T20:15:50;10.53;;;5.43;;
43990;SDS011;29654;50.784;20.604;2024-01-07T20:20:53;10.13;;;6.43;;
43990;SDS011;29654;50.784;20.604;2024-01-07T20:25:58;13.13;;;7.40;;
43990;SDS011;29654;50.784;20.604;2024-01-07T20:31:00;10.90;;;6.77;;
43990;SDS011;29654;50.784;20.604;2024-01-07T20:36:03;9.30;;;5.27;;
43990;SDS011;29654;50.784;20.604;2024-01-07T20:41:12;12.03;;;6.67;;
43990;SDS011;29654;50.784;20.604;2024-01-07T20:46:18;12.93;;;6.70;;
43990;SDS011;29654;50.784;20.604;2024-01-07T20:51:21;13.83;;;8.47;;
43990;SDS011;29654;50.784;20.604;2024-01-07T20:56:26;13.20;;;7.83;;
43990;SDS011;29654;50.784;20.604;2024-01-07T21:01:28;12.23;;;6.77;;
43990;SDS011;29654;50.784;20.604;2024-01-07T21:06:37;14.57;;;7.40;;
43990;SDS011;29654;50.784;20.604;2024-01-07T21:11:41;10.00;;;6.60;;
43990;SDS011;29654;50.784;20.604;2024-01-07T21:16:47;11.17;;;6.80;;
43990;SDS011;29654;50.784;20.604;2024-01-07T21:21:49;11.97;;;6.90;;
43990;SDS011;29654;50.784;20.604;2024-01-07T21:26:55;12.60;;;7.20;;
43990;SDS011;29654;50.784;20.604;2024-01-07T21:31:57;11.63;;;6.00;;
43990;SDS011;29654;50.784;20.604;2024-01-07T21:37:00;12.73;;;7.20;;
43990;SDS011;29654;50.784;20.604;2024-01-07T21:42:04;10.77;;;6.33;;
43990;SDS011;29654;50.784;20.604;2024-01-07T21:47:07;15.73;;;7.40;;
43990;SDS011;29654;50.784;20.604;2024-01-07T21:52:10;14.27;;;7.97;;
43990;SDS011;29654;50.784;20.604;2024-01-07T21:57:15;15.70;;;7.87;;
43990;SDS011;29654;50.784;20.604;2024-01-07T22:02:18;12.90;;;8.17;;
43990;SDS011;29654;50.784;20.604;2024-01-07T22:07:21;12.23;;;7.90;;
43990;SDS011;29654;50.784;20.604;2024-01-07T22:12:25;14.17;;;8.13;;
43990;SDS011;29654;50.784;20.604;2024-01-07T22:17:29;16.63;;;8.77;;
43990;SDS011;29654;50.784;20.604;2024-01-07T22:22:33;11.47;;;7.60;;
43990;SDS011;29654;50.784;20.604;2024-01-07T22:27:40;10.50;;;7.97;;
43990;SDS011;29654;50.784;20.604;2024-01-07T22:32:43;13.63;;;7.80;;
43990;SDS011;29654;50.784;20.604;2024-01-07T22:37:48;11.07;;;6.37;;
43990;SDS011;29654;50.784;20.604;2024-01-07T22:42:53;11.87;;;7.90;;
43990;SDS011;29654;50.784;20.604;2024-01-07T22:47:56;15.20;;;8.27;;
43990;SDS011;29654;50.784;20.604;2024-01-07T22:52:59;11.20;;;7.30;;
43990;SDS011;29654;50.784;20.604;2024-01-07T22:58:03;12.20;;;7.10;;
43990;SDS011;29654;50.784;20.604;2024-01-07T23:03:06;11.00;;;6.33;;
43990;SDS011;29654;50.784;20.604;2024-01-07T23:08:10;11.67;;;7.70;;
43990;SDS011;29654;50.784;20.604;2024-01-07T23:13:14;14.43;;;7.83;;
43990;SDS011;29654;50.784;20.604;2024-01-07T23:18:17;11.77;;;7.87;;
43990;SDS011;29654;50.784;20.604;2024-01-07T23:23:20;13.57;;;7.83;;
43990;SDS011;29654;50.784;20.604;2024-01-07T23:28:25;14.03;;;7.60;;
43990;SDS011;29654;50.784;20.604;2024-01-07T23:33:28;10.33;;;6.70;;
43990;SDS011;29654;50.784;20.604;2024-01-07T23:38:31;11.60;;;7.60;;
43990;SDS011;29654;50.784;20.604;2024-01-07T23:43:36;10.37;;;7.43;;
43990;SDS011;29654;50.784;20.604;2024-01-07T23:48:38;12.57;;;6.60;;
43990;SDS011;29654;50.784;20.604;2024-01-07T23:53:41;12.27;;;6.77;;
43990;SDS011;29654;50.784;20.604;2024-01-07T23:58:45;11.30;;;6.87;;
